Latest Weather Observations for Cape Moreton

IDQ60801

Issued at 10:02 pm EST Tuesday 4 August 2020 (issued every 10 minutes, with the page automatically refreshed every 10 minutes)

About weather observations | Map of weather stations | Latest weather observations for QLD | Other Formats
Station Details ID: 040043 Name: CAPE MORETON LIGHTHOUSE Lat: -27.03 Lon: 153.47 Height: 99.9 m
Data from the previous 72 hours. | See also: Recent months at Cape Moreton
Date/Time
EST
Temp
°C
App
Temp
°C
Dew
Point
°C
Rel
Hum
%
Delta-T
°C
Wind Press
QNH
hPa
Press
MSL
hPa
Rain since
9am
mm
Dir  Spd
km/h
Gust
km/h
Spd
kts
Gust
kts
04/09:30pm 18.7 15.0 10.0 57 4.7 N 20 28 11 15 1015.2 1015.0 0.0
04/09:00pm 18.5 15.0 10.1 58 4.5 N 19 26 10 14 1015.2 1015.0 0.0
04/08:30pm 18.5 15.2 10.8 61 4.2 N 19 24 10 13 1015.2 1015.0 0.0
04/08:00pm 18.4 15.3 11.5 64 3.8 N 19 26 10 14 1015.2 1015.0 0.0
04/07:30pm 18.2 15.1 11.5 65 3.7 NNE 19 24 10 13 1015.0 1014.8 0.0
04/07:00pm 18.1 14.8 11.7 66 3.5 NNE 20 24 11 13 1014.7 1014.5 0.0
04/06:30pm 18.0 14.8 12.0 68 3.3 NNE 20 26 11 14 1014.4 1014.2 0.0
04/06:00pm 18.2 14.8 11.3 64 3.8 NNE 20 24 11 13 1014.2 1014.0 0.0
04/05:30pm 18.1 14.7 9.2 56 4.7 NNE 17 20 9 11 1014.1 1013.9 0.0
04/05:00pm 18.3 15.1 8.6 53 5.0 NNE 15 19 8 10 1013.9 1013.7 0.0
04/04:30pm 19.0 16.4 9.2 53 5.2 N 13 19 7 10 1013.9 1013.7 0.0
04/04:00pm 19.5 16.7 10.0 54 5.1 N 15 20 8 11 1013.9 1013.7 0.0
04/03:30pm 19.8 17.4 10.0 53 5.3 N 13 20 7 11 1013.9 1013.7 0.0
04/03:00pm 19.8 17.8 11.6 59 4.5 N 13 17 7 9 1013.9 1013.7 0.0
04/02:30pm 19.9 17.9 11.4 58 4.7 NNW 13 17 7 9 1014.1 1013.9 0.0
04/02:00pm 19.5 17.2 10.5 56 4.9 NNW 13 15 7 8 1014.3 1014.1 0.0
04/01:30pm 19.4 17.4 10.1 55 5.0 NNW 11 15 6 8 1014.5 1014.3 0.0
04/01:00pm 19.5 17.5 10.0 54 5.1 NW 11 15 6 8 1014.8 1014.6 0.0
04/12:30pm 19.9 16.9 7.9 46 6.2 NW 13 17 7 9 1015.2 1015.0 0.0
04/12:00pm 20.1 17.7 8.8 48 6.0 NW 11 17 6 9 1015.7 1015.5 0.0
04/11:30am 20.1 17.6 8.4 47 6.1 WNW 11 17 6 9 1016.3 1016.1 0.0
04/11:00am 19.2 16.5 9.1 52 5.3 NW 13 20 7 11 1016.8 1016.6 0.0
04/10:30am 20.6 19.1 10.7 53 5.4 NNW 9 17 5 9 1017.3 1017.1 0.0
04/10:00am 19.7 19.0 11.5 59 4.5 W 6 9 3 5 1017.6 1017.4 0.0
04/09:30am 18.6 17.3 11.4 63 4.0 W 9 15 5 8 1017.5 1017.3 0.0
04/09:00am 17.5 15.7 12.2 71 2.9 W 13 17 7 9 1017.6 1017.4 0.8
04/08:30am 17.3 14.8 11.1 67 3.4 W 15 20 8 11 1017.6 1017.4 0.8
04/08:00am 17.1 14.3 10.0 63 3.8 WSW 15 17 8 9 1017.5 1017.3 0.8
04/07:30am 16.4 13.9 9.8 65 3.5 WSW 13 15 7 8 1017.4 1017.2 0.8
04/07:00am 16.1 13.7 10.0 67 3.2 W 13 15 7 8 1017.3 1017.1 0.8
04/06:30am 16.1 13.4 10.4 69 3.0 W 15 15 8 8 1016.9 1016.7 0.8
04/06:00am 15.9 13.4 10.9 72 2.7 W 15 17 8 9 1017.1 1016.9 0.8
04/05:30am 15.8 13.0 11.2 74 2.5 W 17 20 9 11 1017.1 1016.9 0.8
04/05:00am 15.9 12.7 11.1 73 2.6 W 19 20 10 11 1017.0 1016.8 0.8
04/04:30am 15.9 12.7 11.1 73 2.6 W 19 20 10 11 1017.0 1016.8 0.8
04/04:00am 15.8 12.9 11.0 73 2.6 WSW 17 20 9 11 1016.9 1016.7 0.8
04/03:30am 15.5 12.3 11.3 76 2.3 WSW 19 24 10 13 1017.1 1016.9 0.8
04/03:00am 15.6 12.0 12.0 79 2.0 W 22 28 12 15 1017.3 1017.1 0.8
04/02:30am 16.2 13.2 12.0 76 2.3 W 19 26 10 14 1017.3 1017.1 0.8
04/02:00am 18.5 15.9 10.8 61 4.2 NE 15 20 8 11 1017.2 1017.0 0.8
04/01:30am 18.4 15.7 10.3 59 4.4 NE 15 20 8 11 1017.2 1017.0 0.8
04/01:00am 18.3 15.1 9.9 58 4.5 NNE 17 24 9 13 1017.6 1017.4 0.8
04/12:30am 18.0 15.0 10.6 62 4.0 NNE 17 28 9 15 1017.8 1017.6 0.8
04/12:00am 18.0 14.6 10.6 62 4.0 NNE 19 22 10 12 1018.0 1017.8 0.8
 
Date/Time
EST
Temp
°C
App
Temp
°C
Dew
Point
°C
Rel
Hum
%
Delta-T
°C
Wind Press
QNH
hPa
Press
MSL
hPa
Rain since
9am
mm
Dir  Spd
km/h
Gust
km/h
Spd
kts
Gust
kts
03/11:30pm 18.0 14.0 10.6 62 4.0 NNE 22 30 12 16 1018.2 1018.0 0.8
03/11:00pm 17.9 14.3 10.5 62 4.0 NNE 20 26 11 14 1018.2 1018.0 0.8
03/10:30pm 18.0 15.1 11.1 64 3.8 NNE 17 26 9 14 1018.4 1018.2 0.8
03/10:00pm 18.1 15.3 11.2 64 3.8 NNE 17 20 9 11 1018.4 1018.2 0.8
03/09:30pm 18.1 14.9 11.4 65 3.7 NE 19 24 10 13 1018.5 1018.3 0.8
03/09:00pm 17.9 15.1 11.5 66 3.5 ENE 17 20 9 11 1018.6 1018.4 0.8
03/08:30pm 17.9 15.4 11.2 65 3.7 NE 15 19 8 10 1018.6 1018.4 0.8
03/08:00pm 17.8 15.9 11.8 68 3.3 ENE 13 17 7 9 1018.5 1018.3 0.8
03/07:30pm 17.7 15.6 11.3 66 3.5 ENE 13 17 7 9 1018.3 1018.1 0.8
03/07:00pm 17.5 14.9 10.6 64 3.7 ENE 15 17 8 9 1018.0 1017.8 0.8
03/06:30pm 17.4 14.7 10.5 64 3.7 ENE 15 19 8 10 1017.9 1017.7 0.8
03/06:00pm 17.6 15.6 11.4 67 3.4 NE 13 15 7 8 1018.0 1017.8 0.8
03/05:30pm 17.4 15.8 11.4 68 3.3 NE 11 15 6 8 1018.0 1017.8 0.8
03/05:00pm 17.4 16.1 11.2 67 3.4 NE 9 13 5 7 1018.0 1017.8 0.8
03/04:30pm 17.5 15.4 11.1 66 3.5 NE 13 17 7 9 1018.1 1017.9 0.8
03/04:00pm 17.8 17.0 11.6 67 3.4 N 7 9 4 5 1018.2 1018.0 0.8
03/03:30pm 17.8 16.7 12.0 69 3.2 N 9 15 5 8 1018.3 1018.1 0.8
03/03:00pm 17.5 16.0 12.0 70 3.0 NNW 11 15 6 8 1018.7 1018.5 0.8
03/02:30pm 17.7 16.5 11.7 68 3.3 N 9 13 5 7 1019.0 1018.8 0.8
03/02:00pm 17.5 16.6 12.6 73 2.7 NE 9 13 5 7 1019.2 1019.0 0.8
03/01:30pm 18.2 18.1 13.9 76 2.5 E 7 15 4 8 1019.6 1019.5 0.8
03/01:00pm 17.5 15.8 12.4 72 2.8 SW 13 17 7 9 1019.8 1019.7 0.8
03/12:30pm 19.0 17.6 13.4 70 3.2 SW 13 17 7 9 1020.2 1020.1 0.6
03/12:00pm 18.2 16.6 12.9 71 3.0 SW 13 17 7 9 1020.7 1020.6 0.6
03/11:30am 17.2 15.9 13.7 80 2.0 WSW 13 17 7 9 1021.1 1021.0 0.6
03/11:00am 17.8 17.5 14.3 80 2.0 W 9 13 5 7 1021.5 1021.4 0.6
03/10:30am 17.1 18.4 14.0 82 1.8 CALM 0 2 0 1 1021.8 1021.7 0.6
03/10:00am 16.6 15.8 12.9 79 2.1 SW 9 15 5 8 1021.9 1021.8 0.0
03/09:30am 17.4 16.9 13.7 79 2.1 SW 9 13 5 7 1021.8 1021.7 0.0
03/09:00am 16.5 15.0 13.2 81 1.8 SSW 13 17 7 9 1021.8 1021.7 0.2
03/08:30am 16.4 14.5 11.8 74 2.5 SSW 13 17 7 9 1021.7 1021.6 0.2
03/08:00am 16.3 14.3 11.5 73 2.6 SSW 13 17 7 9 1021.5 1021.4 0.2
03/07:30am 15.9 13.0 10.9 72 2.7 SSW 17 20 9 11 1021.1 1021.0 0.2
03/07:00am 15.9 12.9 10.7 71 2.8 SSW 17 20 9 11 1021.0 1020.9 0.2
03/06:30am 16.5 13.9 11.9 74 2.5 SSW 17 20 9 11 1020.9 1020.8 0.2
03/06:00am 16.8 14.0 11.3 70 3.0 S 17 20 9 11 1020.7 1020.6 0.2
03/05:30am 17.1 15.3 12.0 72 2.8 SSE 13 19 7 10 1020.6 1020.5 0.2
03/05:00am 16.8 14.4 11.3 70 3.0 SSE 15 22 8 12 1020.6 1020.5 0.2
03/04:30am 17.9 14.8 10.3 61 4.1 ESE 17 22 9 12 1020.3 1020.2 0.2
03/04:00am 17.5 14.3 9.9 61 4.0 ESE 17 24 9 13 1020.1 1020.0 0.2
03/03:30am 17.5 14.3 9.9 61 4.0 ESE 17 22 9 12 1020.2 1020.1 0.2
03/03:00am 17.4 13.8 9.8 61 4.0 ESE 19 24 10 13 1020.4 1020.3 0.2
03/02:30am 17.7 14.1 10.6 63 3.8 ESE 20 26 11 14 1020.6 1020.5 0.2
03/02:00am 17.2 14.2 10.8 66 3.4 ESE 17 20 9 11 1021.0 1020.9 0.2
03/01:30am 17.5 14.6 10.9 65 3.6 ESE 17 22 9 12 1021.4 1021.3 0.2
03/01:00am 17.5 13.9 10.4 63 3.8 ESE 20 26 11 14 1021.7 1021.6 0.2
03/12:30am 17.9 14.3 10.5 62 4.0 ESE 20 26 11 14 1022.0 1021.9 0.2
03/12:00am 17.6 13.9 10.2 62 3.9 ESE 20 26 11 14 1022.2 1022.1 0.2
 
Date/Time
EST
Temp
°C
App
Temp
°C
Dew
Point
°C
Rel
Hum
%
Delta-T
°C
Wind Press
QNH
hPa
Press
MSL
hPa
Rain since
9am
mm
Dir  Spd
km/h
Gust
km/h
Spd
kts
Gust
kts
02/11:30pm 17.9 13.1 10.3 61 4.1 ESE 26 32 14 17 1022.0 1021.9 0.2
02/11:00pm 17.9 13.2 10.8 63 3.8 ESE 26 33 14 18 1022.2 1022.1 0.2
02/10:30pm 18.0 13.9 11.3 65 3.7 ESE 24 30 13 16 1022.3 1022.2 0.2
02/10:00pm 17.8 14.2 10.7 63 3.8 ESE 20 26 11 14 1022.5 1022.4 0.2
02/09:30pm 17.9 13.5 10.5 62 4.0 ESE 24 32 13 17 1022.7 1022.6 0.2
02/09:00pm 17.8 13.5 10.7 63 3.8 ESE 24 30 13 16 1022.8 1022.7 0.2
02/08:30pm 17.8 13.5 10.7 63 3.8 ESE 24 32 13 17 1022.9 1022.8 0.2
02/08:00pm 18.0 13.7 10.9 63 3.8 ESE 24 30 13 16 1022.9 1022.8 0.2
02/07:30pm 17.8 13.9 10.9 64 3.7 ESE 22 30 12 16 1022.8 1022.7 0.2
02/07:00pm 17.8 13.5 10.7 63 3.8 ESE 24 30 13 16 1022.7 1022.6 0.2
02/06:30pm 17.9 13.2 10.8 63 3.8 ESE 26 35 14 19 1022.4 1022.3 0.2
02/06:00pm 18.1 13.2 11.4 65 3.7 SE 28 32 15 17 1022.2 1022.1 0.2
02/05:30pm 18.3 14.1 12.3 68 3.3 ESE 26 32 14 17 1021.9 1021.8 0.2
02/05:00pm 18.3 14.7 11.8 66 3.6 ESE 22 30 12 16 1021.8 1021.7 0.2
02/04:30pm 19.0 18.4 13.6 71 3.1 SE 9 26 5 14 1021.8 1021.7 0.2
02/04:00pm 18.9 18.2 13.1 69 3.3 SSE 9 15 5 8 1021.9 1021.8 0.2
02/03:30pm 19.7 18.6 13.2 66 3.7 SE 11 17 6 9 1021.9 1021.8 0.2
02/03:00pm 19.6 17.6 13.8 69 3.3 SE 17 20 9 11 1021.9 1021.8 0.2
02/02:30pm 19.4 16.9 12.4 64 3.9 SSE 17 24 9 13 1022.1 1022.0 0.2
02/02:00pm 19.0 15.9 11.6 62 4.1 SSE 19 26 10 14 1022.3 1022.2 0.2
02/01:30pm 20.1 17.3 12.6 62 4.2 S 19 28 10 15 1022.5 1022.4 0.2
02/01:00pm 19.3 16.6 11.8 62 4.1 S 17 24 9 13 1022.9 1022.8 0.2
02/12:30pm 19.7 16.9 12.5 63 4.1 S 19 26 10 14 1023.5 1023.3 0.2
02/12:00pm 19.1 16.1 12.1 64 3.9 S 19 26 10 14 1024.0 1023.8 0.2
02/11:30am 19.2 15.9 12.7 66 3.7 SSE 22 32 12 17 1024.4 1024.2 0.2
02/11:00am 18.9 16.0 12.9 68 3.4 S 20 26 11 14 1024.6 1024.4 0.2
02/10:30am 18.5 16.1 12.7 69 3.3 S 17 22 9 12 1025.0 1024.8 0.0
02/10:00am 17.8 14.9 12.3 70 3.0 S 19 26 10 14 1025.3 1025.1 0.0
02/09:30am 18.0 15.2 12.7 71 3.0 SSW 19 28 10 15 1025.5 1025.3 0.0
02/09:00am 17.7 16.1 12.8 73 2.7 SSW 13 20 7 11 1025.3 1025.1 0.8
02/08:30am 17.4 15.0 12.7 74 2.6 SSW 17 22 9 12 1025.2 1025.0 0.8
02/08:00am 15.6 12.7 12.4 81 1.8 SSW 19 22 10 12 1025.1 1024.9 0.8
02/07:30am 15.4 12.4 12.0 80 1.9 SSW 19 24 10 13 1024.9 1024.7 0.8
02/07:00am 15.0 11.9 11.6 80 1.8 SSW 19 20 10 11 1024.6 1024.4 0.8
02/06:30am 14.7 11.0 11.5 81 1.7 SSW 22 26 12 14 1024.4 1024.2 0.8
02/06:00am 14.1 10.7 11.4 84 1.4 SW 20 24 11 13 1024.0 1023.8 0.8
02/05:30am 14.5 11.2 11.5 82 1.6 SW 20 24 11 13 1023.8 1023.6 0.8
02/05:00am 14.7 11.5 11.8 83 1.6 SSW 20 24 11 13 1023.5 1023.3 0.8
02/04:30am 14.4 10.8 11.7 84 1.5 SW 22 26 12 14 1023.4 1023.2 0.8
02/04:00am 15.1 12.3 12.6 85 1.4 SW 19 26 10 14 1023.2 1023.0 0.8
02/03:30am 15.9 13.2 13.0 83 1.6 SSW 19 22 10 12 1023.3 1023.1 0.8
02/03:00am 17.3 12.3 12.2 72 2.8 SE 30 41 16 22 1023.1 1022.9 0.8
02/02:55am 16.5 13.4 12.1 75 2.4 SSE 20 41 11 22 1022.8 1022.7 0.8
02/02:30am 16.4 15.0 13.3 82 1.7 SSW 13 24 7 13 1023.1 1022.9 0.8
02/02:00am 17.1 14.3 12.6 75 2.5 SE 19 28 10 15 1023.2 1023.0 0.8
02/01:30am 16.8 15.2 13.9 83 1.7 S 15 24 8 13 1023.6 1023.4 0.8
02/01:00am 16.6 14.9 13.5 82 1.7 SSW 15 19 8 10 1023.8 1023.6 0.8
02/12:30am 16.7 14.2 14.2 85 1.4 S 20 30 11 16 1024.0 1023.8 0.8
02/12:00am 16.3 15.0 13.8 85 1.4 SSW 13 17 7 9 1024.2 1024.0 0.8
 
Date/Time
EST
Temp
°C
App
Temp
°C
Dew
Point
°C
Rel
Hum
%
Delta-T
°C
Wind Press
QNH
hPa
Press
MSL
hPa
Rain since
9am
mm
Dir  Spd
km/h
Gust
km/h
Spd
kts
Gust
kts
01/11:30pm 15.7 14.9 13.9 89 1.0 SW 11 19 6 10 1024.4 1024.2 0.8
01/11:00pm 16.6 13.1 13.3 81 1.8 SSE 24 32 13 17 1024.6 1024.4 0.8
01/10:30pm 16.9 13.2 13.8 82 1.8 SSE 26 39 14 21 1024.7 1024.5 0.8

Other formats

Comma delimited format used in spreadsheet applications
http://www.bom.gov.au/fwo/IDQ60801/IDQ60801.94594.axf

JavaScript Object Notation format (JSON) in row-major order
http://www.bom.gov.au/fwo/IDQ60801/IDQ60801.94594.json

Data quality

Most of these data are generated automatically and are frequently updated. Quality checks on data are not normally performed. It is possible for incorrect values to appear. Refer to information at About Latest Weather Observations and please check the disclaimer before using these data.